sensor_id;sensor_type;location;lat;lon;timestamp;P1;durP1;ratioP1;P2;durP2;ratioP2
54871;SDS011;43914;57.680;11.982;2022-10-16T00:02:15;15.72;;;4.87;;
54871;SDS011;43914;57.680;11.982;2022-10-16T00:04:42;20.48;;;5.17;;
54871;SDS011;43914;57.680;11.982;2022-10-16T00:07:08;17.00;;;4.67;;
54871;SDS011;43914;57.680;11.982;2022-10-16T00:09:34;19.00;;;4.30;;
54871;SDS011;43914;57.680;11.982;2022-10-16T00:12:00;12.10;;;3.72;;
54871;SDS011;43914;57.680;11.982;2022-10-16T00:14:28;15.43;;;4.37;;
54871;SDS011;43914;57.680;11.982;2022-10-16T00:16:56;15.08;;;4.05;;
54871;SDS011;43914;57.680;11.982;2022-10-16T00:19:24;13.98;;;3.33;;
54871;SDS011;43914;57.680;11.982;2022-10-16T00:21:50;16.87;;;3.17;;
54871;SDS011;43914;57.680;11.982;2022-10-16T00:24:16;14.53;;;3.37;;
54871;SDS011;43914;57.680;11.982;2022-10-16T00:26:43;17.10;;;3.10;;
54871;SDS011;43914;57.680;11.982;2022-10-16T00:29:09;14.18;;;2.75;;
54871;SDS011;43914;57.680;11.982;2022-10-16T00:31:36;18.87;;;3.15;;
54871;SDS011;43914;57.680;11.982;2022-10-16T00:34:02;14.70;;;3.05;;
54871;SDS011;43914;57.680;11.982;2022-10-16T00:36:28;13.43;;;2.85;;
54871;SDS011;43914;57.680;11.982;2022-10-16T00:38:56;15.95;;;3.00;;
54871;SDS011;43914;57.680;11.982;2022-10-16T00:41:25;15.30;;;3.12;;
54871;SDS011;43914;57.680;11.982;2022-10-16T00:43:53;12.85;;;2.65;;
54871;SDS011;43914;57.680;11.982;2022-10-16T00:46:30;16.10;;;2.70;;
54871;SDS011;43914;57.680;11.982;2022-10-16T00:49:00;17.37;;;2.58;;
54871;SDS011;43914;57.680;11.982;2022-10-16T00:51:34;11.68;;;2.50;;
54871;SDS011;43914;57.680;11.982;2022-10-16T00:54:08;17.32;;;2.98;;
54871;SDS011;43914;57.680;11.982;2022-10-16T00:56:37;15.55;;;2.80;;
54871;SDS011;43914;57.680;11.982;2022-10-16T00:59:04;13.90;;;2.58;;
54871;SDS011;43914;57.680;11.982;2022-10-16T01:01:35;16.20;;;2.60;;
54871;SDS011;43914;57.680;11.982;2022-10-16T01:04:01;15.68;;;2.50;;
54871;SDS011;43914;57.680;11.982;2022-10-16T01:09:47;11.65;;;2.55;;
54871;SDS011;43914;57.680;11.982;2022-10-16T01:12:47;16.37;;;2.40;;
54871;SDS011;43914;57.680;11.982;2022-10-16T01:18:24;14.07;;;2.50;;
54871;SDS011;43914;57.680;11.982;2022-10-16T01:21:24;12.90;;;2.55;;
54871;SDS011;43914;57.680;11.982;2022-10-16T01:30:04;14.55;;;2.42;;
54871;SDS011;43914;57.680;11.982;2022-10-16T01:32:40;11.20;;;2.22;;
54871;SDS011;43914;57.680;11.982;2022-10-16T01:35:27;13.45;;;2.20;;
54871;SDS011;43914;57.680;11.982;2022-10-16T01:40:38;16.12;;;2.45;;
54871;SDS011;43914;57.680;11.982;2022-10-16T01:43:08;14.93;;;2.52;;
54871;SDS011;43914;57.680;11.982;2022-10-16T01:45:41;24.65;;;2.80;;
54871;SDS011;43914;57.680;11.982;2022-10-16T01:48:11;17.10;;;2.70;;
54871;SDS011;43914;57.680;11.982;2022-10-16T01:50:40;14.70;;;2.40;;
54871;SDS011;43914;57.680;11.982;2022-10-16T01:53:09;10.88;;;2.27;;
54871;SDS011;43914;57.680;11.982;2022-10-16T01:55:39;14.15;;;2.37;;
54871;SDS011;43914;57.680;11.982;2022-10-16T01:58:10;12.15;;;3.10;;
54871;SDS011;43914;57.680;11.982;2022-10-16T02:00:39;14.95;;;2.45;;
54871;SDS011;43914;57.680;11.982;2022-10-16T02:03:09;15.30;;;2.50;;
54871;SDS011;43914;57.680;11.982;2022-10-16T02:05:45;15.00;;;2.20;;
54871;SDS011;43914;57.680;11.982;2022-10-16T02:08:18;13.05;;;2.15;;
54871;SDS011;43914;57.680;11.982;2022-10-16T02:10:45;17.40;;;2.37;;
54871;SDS011;43914;57.680;11.982;2022-10-16T02:15:52;17.12;;;2.17;;
54871;SDS011;43914;57.680;11.982;2022-10-16T02:18:18;14.40;;;2.25;;
54871;SDS011;43914;57.680;11.982;2022-10-16T02:23:29;15.78;;;2.77;;
54871;SDS011;43914;57.680;11.982;2022-10-16T02:26:06;14.10;;;2.55;;
54871;SDS011;43914;57.680;11.982;2022-10-16T02:28:40;14.73;;;2.67;;
54871;SDS011;43914;57.680;11.982;2022-10-16T02:31:08;16.62;;;2.85;;
54871;SDS011;43914;57.680;11.982;2022-10-16T02:33:38;19.62;;;2.85;;
54871;SDS011;43914;57.680;11.982;2022-10-16T02:36:08;14.60;;;2.77;;
54871;SDS011;43914;57.680;11.982;2022-10-16T02:38:35;10.90;;;2.30;;
54871;SDS011;43914;57.680;11.982;2022-10-16T02:41:03;16.35;;;2.60;;
54871;SDS011;43914;57.680;11.982;2022-10-16T02:43:30;18.95;;;2.83;;
54871;SDS011;43914;57.680;11.982;2022-10-16T02:45:58;16.27;;;4.05;;
54871;SDS011;43914;57.680;11.982;2022-10-16T02:48:25;12.28;;;2.45;;
54871;SDS011;43914;57.680;11.982;2022-10-16T02:50:51;14.55;;;2.58;;
54871;SDS011;43914;57.680;11.982;2022-10-16T02:53:17;15.45;;;2.60;;
54871;SDS011;43914;57.680;11.982;2022-10-16T02:55:45;12.63;;;2.87;;
54871;SDS011;43914;57.680;11.982;2022-10-16T02:58:12;11.80;;;2.83;;
54871;SDS011;43914;57.680;11.982;2022-10-16T03:00:38;20.70;;;2.95;;
54871;SDS011;43914;57.680;11.982;2022-10-16T03:03:04;14.87;;;2.92;;
54871;SDS011;43914;57.680;11.982;2022-10-16T03:05:30;21.77;;;3.33;;
54871;SDS011;43914;57.680;11.982;2022-10-16T03:07:56;13.98;;;3.00;;
54871;SDS011;43914;57.680;11.982;2022-10-16T03:10:24;16.70;;;2.95;;
54871;SDS011;43914;57.680;11.982;2022-10-16T03:12:51;17.98;;;2.75;;
54871;SDS011;43914;57.680;11.982;2022-10-16T03:15:17;17.23;;;3.20;;
54871;SDS011;43914;57.680;11.982;2022-10-16T03:17:44;14.50;;;3.22;;
54871;SDS011;43914;57.680;11.982;2022-10-16T03:20:10;14.85;;;2.45;;
54871;SDS011;43914;57.680;11.982;2022-10-16T03:22:37;15.83;;;2.92;;
54871;SDS011;43914;57.680;11.982;2022-10-16T03:25:03;14.47;;;2.87;;
54871;SDS011;43914;57.680;11.982;2022-10-16T03:27:30;17.05;;;3.02;;
54871;SDS011;43914;57.680;11.982;2022-10-16T03:29:56;21.73;;;2.90;;
54871;SDS011;43914;57.680;11.982;2022-10-16T03:32:22;15.85;;;2.50;;
54871;SDS011;43914;57.680;11.982;2022-10-16T03:34:50;15.28;;;3.30;;
54871;SDS011;43914;57.680;11.982;2022-10-16T03:37:18;16.10;;;3.00;;
54871;SDS011;43914;57.680;11.982;2022-10-16T03:39:44;15.45;;;2.85;;
54871;SDS011;43914;57.680;11.982;2022-10-16T03:42:10;18.77;;;2.85;;
54871;SDS011;43914;57.680;11.982;2022-10-16T03:44:37;16.37;;;3.02;;
54871;SDS011;43914;57.680;11.982;2022-10-16T03:47:04;16.50;;;2.58;;
54871;SDS011;43914;57.680;11.982;2022-10-16T03:49:30;17.20;;;3.05;;
54871;SDS011;43914;57.680;11.982;2022-10-16T03:51:56;13.18;;;2.75;;
54871;SDS011;43914;57.680;11.982;2022-10-16T03:54:22;13.38;;;2.98;;
54871;SDS011;43914;57.680;11.982;2022-10-16T03:56:48;13.50;;;2.50;;
54871;SDS011;43914;57.680;11.982;2022-10-16T03:59:15;12.50;;;2.58;;
54871;SDS011;43914;57.680;11.982;2022-10-16T04:01:41;15.93;;;3.17;;
54871;SDS011;43914;57.680;11.982;2022-10-16T04:04:07;15.93;;;2.60;;
54871;SDS011;43914;57.680;11.982;2022-10-16T04:06:33;12.15;;;2.37;;
54871;SDS011;43914;57.680;11.982;2022-10-16T04:08:59;15.90;;;3.00;;
54871;SDS011;43914;57.680;11.982;2022-10-16T04:11:27;14.23;;;2.77;;
54871;SDS011;43914;57.680;11.982;2022-10-16T04:13:53;11.78;;;2.58;;
54871;SDS011;43914;57.680;11.982;2022-10-16T04:16:20;11.93;;;2.52;;
54871;SDS011;43914;57.680;11.982;2022-10-16T04:18:48;15.20;;;2.70;;
54871;SDS011;43914;57.680;11.982;2022-10-16T04:21:14;14.13;;;2.85;;
54871;SDS011;43914;57.680;11.982;2022-10-16T04:23:40;18.42;;;2.83;;
54871;SDS011;43914;57.680;11.982;2022-10-16T04:26:08;15.25;;;2.70;;
54871;SDS011;43914;57.680;11.982;2022-10-16T04:28:36;14.65;;;2.65;;
54871;SDS011;43914;57.680;11.982;2022-10-16T04:31:06;14.30;;;2.80;;
54871;SDS011;43914;57.680;11.982;2022-10-16T04:33:33;12.30;;;2.65;;
54871;SDS011;43914;57.680;11.982;2022-10-16T04:36:00;13.62;;;2.70;;
54871;SDS011;43914;57.680;11.982;2022-10-16T04:38:27;17.77;;;2.80;;
54871;SDS011;43914;57.680;11.982;2022-10-16T04:40:54;18.30;;;2.92;;
54871;SDS011;43914;57.680;11.982;2022-10-16T04:43:20;12.47;;;2.50;;
54871;SDS011;43914;57.680;11.982;2022-10-16T04:45:47;16.12;;;2.60;;
54871;SDS011;43914;57.680;11.982;2022-10-16T04:48:15;20.85;;;3.27;;
54871;SDS011;43914;57.680;11.982;2022-10-16T04:50:42;14.40;;;2.85;;
54871;SDS011;43914;57.680;11.982;2022-10-16T04:53:08;15.23;;;2.83;;
54871;SDS011;43914;57.680;11.982;2022-10-16T04:55:34;18.15;;;2.80;;
54871;SDS011;43914;57.680;11.982;2022-10-16T04:58:00;13.60;;;2.90;;
54871;SDS011;43914;57.680;11.982;2022-10-16T05:00:26;13.55;;;2.70;;
54871;SDS011;43914;57.680;11.982;2022-10-16T05:02:52;11.33;;;2.67;;
54871;SDS011;43914;57.680;11.982;2022-10-16T05:05:18;17.60;;;3.22;;
54871;SDS011;43914;57.680;11.982;2022-10-16T05:07:45;14.70;;;2.72;;
54871;SDS011;43914;57.680;11.982;2022-10-16T05:10:12;16.70;;;3.08;;
54871;SDS011;43914;57.680;11.982;2022-10-16T05:12:38;12.23;;;2.67;;
54871;SDS011;43914;57.680;11.982;2022-10-16T05:15:05;10.18;;;2.90;;
54871;SDS011;43914;57.680;11.982;2022-10-16T05:17:32;14.98;;;4.10;;
54871;SDS011;43914;57.680;11.982;2022-10-16T05:19:58;11.63;;;3.45;;
54871;SDS011;43914;57.680;11.982;2022-10-16T05:22:24;16.17;;;3.40;;
54871;SDS011;43914;57.680;11.982;2022-10-16T05:24:51;17.73;;;3.22;;
54871;SDS011;43914;57.680;11.982;2022-10-16T05:27:17;14.55;;;3.10;;
54871;SDS011;43914;57.680;11.982;2022-10-16T05:29:46;18.75;;;4.03;;
54871;SDS011;43914;57.680;11.982;2022-10-16T05:32:14;17.62;;;3.62;;
54871;SDS011;43914;57.680;11.982;2022-10-16T05:34:41;13.78;;;3.40;;
54871;SDS011;43914;57.680;11.982;2022-10-16T05:37:08;24.18;;;4.05;;
54871;SDS011;43914;57.680;11.982;2022-10-16T05:39:36;12.93;;;3.33;;
54871;SDS011;43914;57.680;11.982;2022-10-16T05:42:03;18.40;;;4.17;;
54871;SDS011;43914;57.680;11.982;2022-10-16T05:44:30;22.27;;;3.95;;
54871;SDS011;43914;57.680;11.982;2022-10-16T05:46:57;15.78;;;3.77;;
54871;SDS011;43914;57.680;11.982;2022-10-16T05:49:25;13.08;;;3.62;;
54871;SDS011;43914;57.680;11.982;2022-10-16T05:51:51;19.05;;;4.17;;
54871;SDS011;43914;57.680;11.982;2022-10-16T05:54:17;15.70;;;3.92;;
54871;SDS011;43914;57.680;11.982;2022-10-16T05:56:44;14.13;;;3.67;;
54871;SDS011;43914;57.680;11.982;2022-10-16T05:59:12;14.83;;;3.72;;
54871;SDS011;43914;57.680;11.982;2022-10-16T06:01:38;13.20;;;4.30;;
54871;SDS011;43914;57.680;11.982;2022-10-16T06:04:04;14.47;;;3.87;;
54871;SDS011;43914;57.680;11.982;2022-10-16T06:06:30;12.68;;;3.90;;
54871;SDS011;43914;57.680;11.982;2022-10-16T06:08:56;19.10;;;4.40;;
54871;SDS011;43914;57.680;11.982;2022-10-16T06:11:25;18.25;;;3.95;;
54871;SDS011;43914;57.680;11.982;2022-10-16T06:13:56;13.50;;;4.28;;
54871;SDS011;43914;57.680;11.982;2022-10-16T06:16:25;16.07;;;4.28;;
54871;SDS011;43914;57.680;11.982;2022-10-16T06:18:52;13.18;;;4.55;;
54871;SDS011;43914;57.680;11.982;2022-10-16T06:21:22;13.80;;;4.47;;
54871;SDS011;43914;57.680;11.982;2022-10-16T06:23:51;14.60;;;4.33;;
54871;SDS011;43914;57.680;11.982;2022-10-16T06:26:19;17.27;;;4.17;;
54871;SDS011;43914;57.680;11.982;2022-10-16T06:28:47;12.70;;;4.92;;
54871;SDS011;43914;57.680;11.982;2022-10-16T06:31:15;18.02;;;4.28;;
54871;SDS011;43914;57.680;11.982;2022-10-16T06:33:43;17.25;;;4.12;;
54871;SDS011;43914;57.680;11.982;2022-10-16T06:36:11;13.53;;;4.58;;
54871;SDS011;43914;57.680;11.982;2022-10-16T06:38:41;15.85;;;4.70;;
54871;SDS011;43914;57.680;11.982;2022-10-16T06:41:09;14.25;;;3.95;;
54871;SDS011;43914;57.680;11.982;2022-10-16T06:43:42;17.67;;;4.22;;
54871;SDS011;43914;57.680;11.982;2022-10-16T06:46:13;15.83;;;4.30;;
54871;SDS011;43914;57.680;11.982;2022-10-16T06:48:42;14.10;;;3.95;;
54871;SDS011;43914;57.680;11.982;2022-10-16T06:51:13;16.27;;;4.08;;
54871;SDS011;43914;57.680;11.982;2022-10-16T06:53:41;15.55;;;3.98;;
54871;SDS011;43914;57.680;11.982;2022-10-16T06:56:17;16.82;;;3.60;;
54871;SDS011;43914;57.680;11.982;2022-10-16T06:58:48;11.18;;;2.80;;
54871;SDS011;43914;57.680;11.982;2022-10-16T07:01:16;11.10;;;3.55;;
54871;SDS011;43914;57.680;11.982;2022-10-16T07:03:44;10.82;;;2.92;;
54871;SDS011;43914;57.680;11.982;2022-10-16T07:06:12;12.13;;;3.22;;
54871;SDS011;43914;57.680;11.982;2022-10-16T07:08:41;11.40;;;2.50;;
54871;SDS011;43914;57.680;11.982;2022-10-16T07:11:10;13.25;;;2.60;;
54871;SDS011;43914;57.680;11.982;2022-10-16T07:13:40;11.18;;;2.58;;
54871;SDS011;43914;57.680;11.982;2022-10-16T07:16:12;11.38;;;2.47;;
54871;SDS011;43914;57.680;11.982;2022-10-16T07:18:42;8.90;;;2.25;;
54871;SDS011;43914;57.680;11.982;2022-10-16T07:21:12;11.88;;;2.42;;
54871;SDS011;43914;57.680;11.982;2022-10-16T07:23:44;11.33;;;2.17;;
54871;SDS011;43914;57.680;11.982;2022-10-16T07:26:20;11.38;;;2.27;;
54871;SDS011;43914;57.680;11.982;2022-10-16T07:28:48;9.88;;;2.30;;
54871;SDS011;43914;57.680;11.982;2022-10-16T07:31:15;14.55;;;2.60;;
54871;SDS011;43914;57.680;11.982;2022-10-16T07:33:44;13.83;;;2.20;;
54871;SDS011;43914;57.680;11.982;2022-10-16T07:36:12;14.33;;;2.42;;
54871;SDS011;43914;57.680;11.982;2022-10-16T07:38:43;11.75;;;1.95;;
54871;SDS011;43914;57.680;11.982;2022-10-16T07:41:11;12.00;;;2.20;;
54871;SDS011;43914;57.680;11.982;2022-10-16T07:43:40;10.32;;;2.10;;
54871;SDS011;43914;57.680;11.982;2022-10-16T07:46:12;11.35;;;1.87;;
54871;SDS011;43914;57.680;11.982;2022-10-16T07:48:39;14.10;;;2.40;;
54871;SDS011;43914;57.680;11.982;2022-10-16T07:51:06;15.63;;;2.27;;
54871;SDS011;43914;57.680;11.982;2022-10-16T07:53:33;18.95;;;2.67;;
54871;SDS011;43914;57.680;11.982;2022-10-16T07:56:00;10.10;;;1.90;;
54871;SDS011;43914;57.680;11.982;2022-10-16T07:58:29;15.28;;;2.22;;
54871;SDS011;43914;57.680;11.982;2022-10-16T08:00:56;13.75;;;2.45;;
54871;SDS011;43914;57.680;11.982;2022-10-16T08:03:23;9.95;;;2.20;;
54871;SDS011;43914;57.680;11.982;2022-10-16T08:05:51;12.68;;;2.22;;
54871;SDS011;43914;57.680;11.982;2022-10-16T08:08:17;12.53;;;2.05;;
54871;SDS011;43914;57.680;11.982;2022-10-16T08:10:44;12.25;;;1.87;;
54871;SDS011;43914;57.680;11.982;2022-10-16T08:13:11;11.12;;;1.80;;
54871;SDS011;43914;57.680;11.982;2022-10-16T08:15:39;15.13;;;2.52;;
54871;SDS011;43914;57.680;11.982;2022-10-16T08:18:05;14.47;;;2.30;;
54871;SDS011;43914;57.680;11.982;2022-10-16T08:20:31;12.60;;;2.50;;
54871;SDS011;43914;57.680;11.982;2022-10-16T08:22:59;19.02;;;2.55;;
54871;SDS011;43914;57.680;11.982;2022-10-16T08:25:26;15.28;;;2.20;;
54871;SDS011;43914;57.680;11.982;2022-10-16T08:27:53;20.17;;;2.90;;
54871;SDS011;43914;57.680;11.982;2022-10-16T08:30:20;19.62;;;2.70;;
54871;SDS011;43914;57.680;11.982;2022-10-16T08:32:48;18.25;;;2.47;;
54871;SDS011;43914;57.680;11.982;2022-10-16T08:35:14;13.43;;;2.50;;
54871;SDS011;43914;57.680;11.982;2022-10-16T08:37:42;23.65;;;3.37;;
54871;SDS011;43914;57.680;11.982;2022-10-16T08:40:22;14.40;;;2.40;;
54871;SDS011;43914;57.680;11.982;2022-10-16T08:49:00;20.97;;;2.62;;
54871;SDS011;43914;57.680;11.982;2022-10-16T08:56:56;14.85;;;2.62;;
54871;SDS011;43914;57.680;11.982;2022-10-16T08:59:29;13.25;;;2.12;;
54871;SDS011;43914;57.680;11.982;2022-10-16T09:01:55;19.67;;;2.77;;
54871;SDS011;43914;57.680;11.982;2022-10-16T09:21:46;15.90;;;2.80;;
54871;SDS011;43914;57.680;11.982;2022-10-16T09:24:14;18.17;;;2.60;;
54871;SDS011;43914;57.680;11.982;2022-10-16T09:26:47;18.37;;;2.90;;
54871;SDS011;43914;57.680;11.982;2022-10-16T09:29:14;19.07;;;3.17;;
54871;SDS011;43914;57.680;11.982;2022-10-16T09:31:45;16.40;;;2.90;;
54871;SDS011;43914;57.680;11.982;2022-10-16T09:34:21;18.55;;;3.00;;
54871;SDS011;43914;57.680;11.982;2022-10-16T09:36:55;25.45;;;3.02;;
54871;SDS011;43914;57.680;11.982;2022-10-16T09:39:24;16.75;;;2.77;;
54871;SDS011;43914;57.680;11.982;2022-10-16T09:41:50;18.40;;;2.98;;
54871;SDS011;43914;57.680;11.982;2022-10-16T09:44:19;14.30;;;2.52;;
54871;SDS011;43914;57.680;11.982;2022-10-16T09:47:10;17.15;;;2.72;;
54871;SDS011;43914;57.680;11.982;2022-10-16T09:50:01;14.95;;;2.47;;
54871;SDS011;43914;57.680;11.982;2022-10-16T09:52:31;24.85;;;2.98;;
54871;SDS011;43914;57.680;11.982;2022-10-16T09:54:59;20.95;;;3.10;;
54871;SDS011;43914;57.680;11.982;2022-10-16T09:57:29;18.98;;;2.80;;
54871;SDS011;43914;57.680;11.982;2022-10-16T09:59:56;16.73;;;2.83;;
54871;SDS011;43914;57.680;11.982;2022-10-16T10:05:04;13.00;;;2.25;;
54871;SDS011;43914;57.680;11.982;2022-10-16T10:07:39;18.20;;;2.98;;
54871;SDS011;43914;57.680;11.982;2022-10-16T10:10:22;19.17;;;2.75;;
54871;SDS011;43914;57.680;11.982;2022-10-16T10:12:55;20.45;;;2.87;;
54871;SDS011;43914;57.680;11.982;2022-10-16T10:15:22;19.10;;;2.87;;
54871;SDS011;43914;57.680;11.982;2022-10-16T10:17:55;16.32;;;2.30;;
54871;SDS011;43914;57.680;11.982;2022-10-16T10:22:58;19.80;;;2.80;;
54871;SDS011;43914;57.680;11.982;2022-10-16T10:28:21;25.40;;;3.20;;
54871;SDS011;43914;57.680;11.982;2022-10-16T10:39:00;13.90;;;2.70;;
54871;SDS011;43914;57.680;11.982;2022-10-16T10:50:20;23.20;;;4.03;;
54871;SDS011;43914;57.680;11.982;2022-10-16T10:55:40;9.65;;;1.90;;
54871;SDS011;43914;57.680;11.982;2022-10-16T10:58:39;15.60;;;2.83;;
54871;SDS011;43914;57.680;11.982;2022-10-16T11:01:12;22.58;;;3.05;;
54871;SDS011;43914;57.680;11.982;2022-10-16T11:07:11;15.23;;;2.98;;
54871;SDS011;43914;57.680;11.982;2022-10-16T11:09:57;26.65;;;4.30;;
54871;SDS011;43914;57.680;11.982;2022-10-16T11:12:30;18.25;;;3.08;;
54871;SDS011;43914;57.680;11.982;2022-10-16T11:15:14;19.40;;;3.08;;
54871;SDS011;43914;57.680;11.982;2022-10-16T11:20:25;17.05;;;2.65;;
54871;SDS011;43914;57.680;11.982;2022-10-16T11:25:46;14.63;;;2.30;;
54871;SDS011;43914;57.680;11.982;2022-10-16T11:31:18;16.15;;;2.85;;
54871;SDS011;43914;57.680;11.982;2022-10-16T11:34:00;18.23;;;2.83;;
54871;SDS011;43914;57.680;11.982;2022-10-16T11:36:53;17.73;;;2.60;;
54871;SDS011;43914;57.680;11.982;2022-10-16T11:39:36;16.17;;;2.50;;
54871;SDS011;43914;57.680;11.982;2022-10-16T11:44:46;19.45;;;3.55;;
54871;SDS011;43914;57.680;11.982;2022-10-16T11:47:48;17.02;;;3.02;;
54871;SDS011;43914;57.680;11.982;2022-10-16T11:50:34;20.10;;;2.80;;
54871;SDS011;43914;57.680;11.982;2022-10-16T11:55:49;17.15;;;2.70;;
54871;SDS011;43914;57.680;11.982;2022-10-16T11:58:29;17.85;;;2.92;;
54871;SDS011;43914;57.680;11.982;2022-10-16T12:01:22;17.52;;;2.60;;
54871;SDS011;43914;57.680;11.982;2022-10-16T12:07:07;8.75;;;1.40;;
54871;SDS011;43914;57.680;11.982;2022-10-16T12:09:37;12.75;;;1.98;;
54871;SDS011;43914;57.680;11.982;2022-10-16T12:12:26;23.80;;;3.20;;
54871;SDS011;43914;57.680;11.982;2022-10-16T12:15:17;19.87;;;3.05;;
54871;SDS011;43914;57.680;11.982;2022-10-16T12:17:52;19.07;;;2.85;;
54871;SDS011;43914;57.680;11.982;2022-10-16T12:20:26;27.35;;;3.05;;
54871;SDS011;43914;57.680;11.982;2022-10-16T12:23:02;27.60;;;3.33;;
54871;SDS011;43914;57.680;11.982;2022-10-16T12:25:34;22.58;;;3.05;;
54871;SDS011;43914;57.680;11.982;2022-10-16T12:28:06;20.12;;;2.55;;
54871;SDS011;43914;57.680;11.982;2022-10-16T12:30:42;24.10;;;3.02;;
54871;SDS011;43914;57.680;11.982;2022-10-16T12:33:26;26.90;;;2.65;;
54871;SDS011;43914;57.680;11.982;2022-10-16T12:35:56;18.40;;;2.52;;
54871;SDS011;43914;57.680;11.982;2022-10-16T12:38:26;19.17;;;2.35;;
54871;SDS011;43914;57.680;11.982;2022-10-16T12:41:05;26.82;;;3.35;;
54871;SDS011;43914;57.680;11.982;2022-10-16T12:48:43;27.55;;;2.67;;
54871;SDS011;43914;57.680;11.982;2022-10-16T12:54:04;19.50;;;2.33;;
54871;SDS011;43914;57.680;11.982;2022-10-16T13:14:25;15.60;;;2.12;;
54871;SDS011;43914;57.680;11.982;2022-10-16T13:28:04;14.38;;;2.05;;
54871;SDS011;43914;57.680;11.982;2022-10-16T13:30:50;9.80;;;1.92;;
54871;SDS011;43914;57.680;11.982;2022-10-16T13:33:24;17.48;;;2.12;;
54871;SDS011;43914;57.680;11.982;2022-10-16T13:35:55;14.95;;;2.20;;
54871;SDS011;43914;57.680;11.982;2022-10-16T13:38:23;11.80;;;1.70;;
54871;SDS011;43914;57.680;11.982;2022-10-16T13:40:57;9.68;;;1.82;;
54871;SDS011;43914;57.680;11.982;2022-10-16T13:43:39;20.08;;;3.37;;
54871;SDS011;43914;57.680;11.982;2022-10-16T13:46:19;10.85;;;1.75;;
54871;SDS011;43914;57.680;11.982;2022-10-16T13:49:01;16.73;;;2.80;;
54871;SDS011;43914;57.680;11.982;2022-10-16T13:51:54;18.50;;;2.50;;
54871;SDS011;43914;57.680;11.982;2022-10-16T13:54:23;18.80;;;2.37;;
54871;SDS011;43914;57.680;11.982;2022-10-16T13:56:51;15.48;;;2.10;;
54871;SDS011;43914;57.680;11.982;2022-10-16T13:59:23;13.35;;;2.08;;
54871;SDS011;43914;57.680;11.982;2022-10-16T14:02:05;17.98;;;2.80;;
54871;SDS011;43914;57.680;11.982;2022-10-16T14:04:44;19.67;;;2.50;;
54871;SDS011;43914;57.680;11.982;2022-10-16T14:07:18;15.78;;;2.20;;
54871;SDS011;43914;57.680;11.982;2022-10-16T14:09:52;21.33;;;2.62;;
54871;SDS011;43914;57.680;11.982;2022-10-16T14:12:19;13.68;;;2.37;;
54871;SDS011;43914;57.680;11.982;2022-10-16T14:14:48;13.18;;;1.95;;
54871;SDS011;43914;57.680;11.982;2022-10-16T14:17:24;17.30;;;2.62;;
54871;SDS011;43914;57.680;11.982;2022-10-16T14:19:57;17.20;;;2.70;;
54871;SDS011;43914;57.680;11.982;2022-10-16T14:30:33;17.25;;;2.77;;
54871;SDS011;43914;57.680;11.982;2022-10-16T14:33:05;12.90;;;2.30;;
54871;SDS011;43914;57.680;11.982;2022-10-16T14:35:36;13.72;;;2.52;;
54871;SDS011;43914;57.680;11.982;2022-10-16T14:38:04;15.05;;;2.22;;
54871;SDS011;43914;57.680;11.982;2022-10-16T14:40:35;15.85;;;2.77;;
54871;SDS011;43914;57.680;11.982;2022-10-16T14:43:03;20.10;;;2.95;;
54871;SDS011;43914;57.680;11.982;2022-10-16T14:45:31;20.37;;;2.65;;
54871;SDS011;43914;57.680;11.982;2022-10-16T14:48:00;22.22;;;3.10;;
54871;SDS011;43914;57.680;11.982;2022-10-16T14:50:31;23.18;;;2.72;;
54871;SDS011;43914;57.680;11.982;2022-10-16T14:55:32;21.97;;;2.90;;
54871;SDS011;43914;57.680;11.982;2022-10-16T14:57:58;15.28;;;2.55;;
54871;SDS011;43914;57.680;11.982;2022-10-16T15:00:26;23.83;;;2.70;;
54871;SDS011;43914;57.680;11.982;2022-10-16T15:02:52;27.58;;;2.98;;
54871;SDS011;43914;57.680;11.982;2022-10-16T15:05:20;27.70;;;3.60;;
54871;SDS011;43914;57.680;11.982;2022-10-16T15:07:49;20.52;;;3.05;;
54871;SDS011;43914;57.680;11.982;2022-10-16T15:10:17;25.82;;;2.85;;
54871;SDS011;43914;57.680;11.982;2022-10-16T15:12:44;29.00;;;3.70;;
54871;SDS011;43914;57.680;11.982;2022-10-16T15:17:55;20.00;;;3.15;;
54871;SDS011;43914;57.680;11.982;2022-10-16T15:20:23;22.48;;;2.92;;
54871;SDS011;43914;57.680;11.982;2022-10-16T15:22:50;21.95;;;3.02;;
54871;SDS011;43914;57.680;11.982;2022-10-16T15:28:04;25.20;;;3.02;;
54871;SDS011;43914;57.680;11.982;2022-10-16T15:30:29;25.23;;;3.30;;
54871;SDS011;43914;57.680;11.982;2022-10-16T15:32:56;21.00;;;2.77;;
54871;SDS011;43914;57.680;11.982;2022-10-16T15:35:26;21.33;;;2.90;;
54871;SDS011;43914;57.680;11.982;2022-10-16T15:37:52;23.80;;;2.92;;
54871;SDS011;43914;57.680;11.982;2022-10-16T15:40:19;20.55;;;2.62;;
54871;SDS011;43914;57.680;11.982;2022-10-16T15:42:46;20.15;;;2.70;;
54871;SDS011;43914;57.680;11.982;2022-10-16T15:45:12;25.60;;;2.90;;
54871;SDS011;43914;57.680;11.982;2022-10-16T15:47:43;16.82;;;2.45;;
54871;SDS011;43914;57.680;11.982;2022-10-16T15:50:10;19.90;;;3.12;;
54871;SDS011;43914;57.680;11.982;2022-10-16T15:52:38;26.20;;;3.37;;
54871;SDS011;43914;57.680;11.982;2022-10-16T15:55:06;18.45;;;2.95;;
54871;SDS011;43914;57.680;11.982;2022-10-16T15:57:35;19.17;;;2.92;;
54871;SDS011;43914;57.680;11.982;2022-10-16T16:00:08;23.73;;;3.12;;
54871;SDS011;43914;57.680;11.982;2022-10-16T16:02:34;22.93;;;3.27;;
54871;SDS011;43914;57.680;11.982;2022-10-16T16:05:00;26.35;;;3.25;;
54871;SDS011;43914;57.680;11.982;2022-10-16T16:07:27;19.20;;;2.90;;
54871;SDS011;43914;57.680;11.982;2022-10-16T16:09:53;23.95;;;2.95;;
54871;SDS011;43914;57.680;11.982;2022-10-16T16:12:19;24.37;;;3.02;;
54871;SDS011;43914;57.680;11.982;2022-10-16T16:14:47;22.35;;;3.15;;
54871;SDS011;43914;57.680;11.982;2022-10-16T16:17:14;19.90;;;2.95;;
54871;SDS011;43914;57.680;11.982;2022-10-16T16:19:40;25.88;;;2.77;;
54871;SDS011;43914;57.680;11.982;2022-10-16T16:22:06;18.90;;;2.67;;
54871;SDS011;43914;57.680;11.982;2022-10-16T16:24:35;18.25;;;2.83;;
54871;SDS011;43914;57.680;11.982;2022-10-16T16:27:00;21.00;;;2.58;;
54871;SDS011;43914;57.680;11.982;2022-10-16T16:29:26;21.20;;;3.65;;
54871;SDS011;43914;57.680;11.982;2022-10-16T16:31:53;15.98;;;2.33;;
54871;SDS011;43914;57.680;11.982;2022-10-16T16:34:21;15.65;;;2.52;;
54871;SDS011;43914;57.680;11.982;2022-10-16T16:36:47;22.30;;;3.22;;
54871;SDS011;43914;57.680;11.982;2022-10-16T16:39:13;19.00;;;3.33;;
54871;SDS011;43914;57.680;11.982;2022-10-16T16:41:39;28.60;;;3.72;;
54871;SDS011;43914;57.680;11.982;2022-10-16T16:44:08;18.67;;;2.80;;
54871;SDS011;43914;57.680;11.982;2022-10-16T16:46:38;21.33;;;3.17;;
54871;SDS011;43914;57.680;11.982;2022-10-16T16:49:09;15.03;;;2.67;;
54871;SDS011;43914;57.680;11.982;2022-10-16T16:51:32;26.33;;;3.45;;
54871;SDS011;43914;57.680;11.982;2022-10-16T16:53:59;21.23;;;3.27;;
54871;SDS011;43914;57.680;11.982;2022-10-16T16:56:26;14.55;;;2.22;;
54871;SDS011;43914;57.680;11.982;2022-10-16T16:58:53;17.73;;;2.62;;
54871;SDS011;43914;57.680;11.982;2022-10-16T17:01:22;23.60;;;2.75;;
54871;SDS011;43914;57.680;11.982;2022-10-16T17:03:53;13.32;;;2.17;;
54871;SDS011;43914;57.680;11.982;2022-10-16T17:06:27;17.87;;;2.50;;
54871;SDS011;43914;57.680;11.982;2022-10-16T17:08:57;18.60;;;3.50;;